Time;durP1;ratioP1;P1;durP2;ratioP2;P2;SDS_P1;SDS_P2;PMS_P1;PMS_P2;Temp;Humidity;BMP_temperature;BMP_pressure;BME280_temperature;BME280_humidity;BME280_pressure;Samples;Min_cycle;Max_cycle;Signal;HPM_P1;HPM_P2
2024/01/28 00:01:43;;;;;;;18.83;10.43;;;;;;;3.42;62.99;97910.84;5032300;28;20177;-68
2024/01/28 00:04:09;;;;;;;11.60;9.17;;;;;;;3.58;63.31;97917.91;5037846;28;20631;-66
2024/01/28 00:06:34;;;;;;;14.53;9.53;;;;;;;3.48;63.24;97903.13;5042056;28;20429;-67
2024/01/28 00:09:00;;;;;;;17.83;9.77;;;;;;;3.48;62.64;97902.28;5044277;28;20238;-67
2024/01/28 00:11:25;;;;;;;15.80;9.47;;;;;;;3.70;61.85;97900.69;5028707;28;20198;-67
2024/01/28 00:13:51;;;;;;;11.80;8.97;;;;;;;3.58;62.12;97894.56;5036288;28;20948;-67
2024/01/28 00:16:17;;;;;;;14.90;8.33;;;;;;;3.47;62.78;97888.41;5034547;28;20198;-67
2024/01/28 00:18:43;;;;;;;16.07;9.30;;;;;;;3.46;62.55;97880.63;5039706;28;20223;-68
2024/01/28 00:21:08;;;;;;;12.80;10.00;;;;;;;3.39;62.52;97875.38;5034711;28;20438;-66
2024/01/28 00:23:34;;;;;;;12.43;8.23;;;;;;;3.13;63.31;97882.94;5035496;28;20293;-67
2024/01/28 00:26:01;;;;;;;13.13;9.60;;;;;;;3.23;63.13;97878.69;5032142;28;20176;-68
2024/01/28 00:28:27;;;;;;;13.40;8.93;;;;;;;3.25;62.97;97878.72;5041581;28;20202;-67
2024/01/28 00:30:53;;;;;;;10.93;8.40;;;;;;;3.24;62.87;97884.78;5032733;28;20823;-68
2024/01/28 00:33:18;;;;;;;13.13;9.77;;;;;;;3.04;62.85;97882.84;5033680;28;20449;-66
2024/01/28 00:35:44;;;;;;;12.37;8.40;;;;;;;2.75;64.49;97891.19;5032498;28;20182;-71
2024/01/28 00:38:10;;;;;;;10.70;7.70;;;;;;;2.74;64.40;97889.47;5039002;28;20826;-68
2024/01/28 00:40:35;;;;;;;10.90;8.83;;;;;;;2.53;65.42;97890.09;5038901;28;20182;-65
2024/01/28 00:43:02;;;;;;;52.33;15.73;;;;;;;2.91;64.29;97897.41;5028883;28;20294;-67
2024/01/28 00:45:27;;;;;;;19.20;9.53;;;;;;;3.04;63.79;97885.44;5042459;28;20534;-67
2024/01/28 00:47:53;;;;;;;15.07;8.80;;;;;;;3.01;64.23;97882.81;5034432;28;20432;-66
2024/01/28 00:50:20;;;;;;;13.37;9.17;;;;;;;3.12;63.49;97880.34;5033728;28;20186;-67
2024/01/28 00:52:46;;;;;;;14.07;9.03;;;;;;;3.10;63.76;97871.69;5036238;28;20191;-68
2024/01/28 00:55:11;;;;;;;13.80;8.70;;;;;;;2.98;64.19;97880.22;5034949;28;20430;-67
2024/01/28 00:57:37;;;;;;;12.30;9.53;;;;;;;3.04;63.62;97869.88;5031560;28;20493;-67
2024/01/28 01:00:04;;;;;;;11.80;8.50;;;;;;;3.25;63.17;97874.38;5028851;28;20660;-67
2024/01/28 01:02:29;;;;;;;10.70;8.87;;;;;;;3.21;63.31;97871.75;5041059;28;20198;-66
2024/01/28 01:04:55;;;;;;;12.73;9.70;;;;;;;3.07;63.15;97863.84;5038620;28;20436;-68
2024/01/28 01:07:20;;;;;;;11.87;9.60;;;;;;;3.02;63.66;97862.94;5039380;28;20266;-67
2024/01/28 01:09:46;;;;;;;9.10;8.03;;;;;;;3.03;63.40;97854.31;5028970;28;20625;-68
2024/01/28 01:12:12;;;;;;;14.50;8.80;;;;;;;3.06;63.71;97849.16;5032384;28;20195;-66
2024/01/28 01:14:37;;;;;;;12.40;8.07;;;;;;;3.24;63.29;97843.28;5033588;28;20186;-67
2024/01/28 01:17:04;;;;;;;11.13;7.80;;;;;;;3.23;62.97;97837.19;5036776;28;20493;-67
2024/01/28 01:19:29;;;;;;;10.73;9.17;;;;;;;3.11;63.37;97834.50;5033465;28;20181;-68
2024/01/28 01:21:57;;;;;;;10.40;8.70;;;;;;;3.25;63.10;97835.47;5029308;28;20458;-67
2024/01/28 01:24:22;;;;;;;10.47;7.83;;;;;;;2.93;63.41;97837.81;5036105;28;20207;-66
2024/01/28 01:26:48;;;;;;;10.10;8.33;;;;;;;3.08;63.08;97835.34;5041730;28;20444;-66
2024/01/28 01:29:13;;;;;;;12.40;7.67;;;;;;;3.01;62.97;97833.56;5037806;28;20191;-67
2024/01/28 01:31:38;;;;;;;14.50;8.17;;;;;;;3.00;63.21;97834.41;5035009;28;20186;-69
2024/01/28 01:34:04;;;;;;;14.73;9.30;;;;;;;3.04;63.24;97833.56;5029763;28;20563;-68
2024/01/28 01:36:30;;;;;;;10.57;8.83;;;;;;;2.97;63.32;97840.41;5032303;28;20253;-66
2024/01/28 01:38:56;;;;;;;14.10;9.33;;;;;;;3.29;62.83;97841.56;5037418;28;20184;-67
2024/01/28 01:41:23;;;;;;;8.97;7.90;;;;;;;3.10;63.10;97838.81;5042173;28;20939;-69
2024/01/28 01:43:48;;;;;;;12.60;8.57;;;;;;;3.04;62.85;97841.34;5042474;28;20460;-67
2024/01/28 01:46:14;;;;;;;12.40;8.10;;;;;;;2.88;62.73;97842.06;5030803;28;20460;-66
2024/01/28 01:48:40;;;;;;;14.80;9.03;;;;;;;2.77;63.21;97841.09;5034661;28;20229;-67
2024/01/28 01:51:06;;;;;;;10.13;8.53;;;;;;;2.77;63.82;97851.47;5037469;28;20429;-68
2024/01/28 01:53:33;;;;;;;14.10;8.73;;;;;;;2.53;64.20;97846.03;5042745;28;20212;-69
2024/01/28 01:55:58;;;;;;;14.40;7.97;;;;;;;2.51;64.42;97849.47;5029747;28;20616;-68
2024/01/28 01:58:24;;;;;;;10.80;8.23;;;;;;;2.83;63.33;97844.59;5028744;28;20501;-68
2024/01/28 02:00:49;;;;;;;13.50;8.47;;;;;;;2.90;62.93;97843.81;5032129;28;20577;-67
2024/01/28 02:03:15;;;;;;;12.10;8.43;;;;;;;2.86;62.98;97841.16;5037953;28;20291;-67
2024/01/28 02:05:40;;;;;;;13.53;7.83;;;;;;;2.80;63.51;97842.00;5037931;28;20232;-67
2024/01/28 02:08:06;;;;;;;11.07;8.10;;;;;;;2.72;63.81;97839.34;5043963;28;20182;-67
2024/01/28 02:10:32;;;;;;;10.63;8.03;;;;;;;2.73;63.20;97835.88;5036636;28;20202;-68
2024/01/28 02:12:57;;;;;;;11.13;10.03;;;;;;;2.71;63.03;97826.34;5030180;28;20195;-68
2024/01/28 02:15:22;;;;;;;12.27;7.30;;;;;;;2.70;63.46;97827.22;5042016;28;20989;-68
2024/01/28 02:17:48;;;;;;;10.00;7.50;;;;;;;2.52;63.72;97825.28;5045936;28;20174;-67
2024/01/28 02:20:14;;;;;;;12.03;6.87;;;;;;;2.67;63.68;97820.28;5035459;28;20762;-66
2024/01/28 02:22:39;;;;;;;12.63;7.87;;;;;;;2.73;63.52;97807.34;5034160;28;20206;-66
2024/01/28 02:25:06;;;;;;;9.97;8.53;;;;;;;2.67;63.74;97811.59;5043232;28;20170;-67
2024/01/28 02:27:31;;;;;;;10.90;8.00;;;;;;;2.80;63.29;97812.63;5036218;28;20203;-67
2024/01/28 02:29:57;;;;;;;10.07;8.20;;;;;;;2.86;63.75;97815.25;5038390;28;20538;-67
2024/01/28 02:32:22;;;;;;;13.53;8.97;;;;;;;2.77;63.72;97820.38;5045216;28;20202;-66
2024/01/28 02:34:47;;;;;;;9.70;8.13;;;;;;;2.69;63.46;97821.16;5031846;28;20195;-66
2024/01/28 02:37:13;;;;;;;13.87;7.77;;;;;;;2.59;63.86;97815.84;5032119;28;20716;-67
2024/01/28 02:39:39;;;;;;;19.20;8.10;;;;;;;2.65;63.92;97809.03;5036346;28;20182;-67
2024/01/28 02:42:05;;;;;;;11.60;8.07;;;;;;;2.63;63.83;97815.91;5030872;28;20252;-67
2024/01/28 02:44:31;;;;;;;13.17;9.20;;;;;;;2.58;63.79;97819.31;5036582;28;20470;-68
2024/01/28 02:46:56;;;;;;;15.63;8.37;;;;;;;2.69;63.83;97813.38;5031485;28;20445;-65
2024/01/28 02:49:23;;;;;;;13.33;8.67;;;;;;;2.54;63.94;97813.22;5046935;28;20171;-68
2024/01/28 02:51:50;;;;;;;16.00;8.47;;;;;;;2.64;63.82;97807.25;5058347;28;20199;-67
2024/01/28 02:54:15;;;;;;;10.50;7.00;;;;;;;2.58;63.84;97809.81;5038824;28;20845;-67
2024/01/28 02:56:40;;;;;;;15.97;8.97;;;;;;;2.70;63.30;97802.16;5044287;28;20430;-67
2024/01/28 02:59:06;;;;;;;10.93;7.20;;;;;;;2.62;63.33;97800.31;5031736;28;21655;-67
2024/01/28 03:01:31;;;;;;;12.10;7.90;;;;;;;2.37;64.19;97804.41;5038013;28;20183;-67
2024/01/28 03:03:56;;;;;;;12.10;7.70;;;;;;;2.57;64.14;97808.06;5039353;28;20247;-66
2024/01/28 03:06:22;;;;;;;17.27;8.40;;;;;;;2.77;63.33;97807.41;5039305;28;20179;-66
2024/01/28 03:08:47;;;;;;;13.10;8.53;;;;;;;2.64;63.67;97807.25;5034221;28;20654;-67
2024/01/28 03:11:13;;;;;;;12.03;8.70;;;;;;;2.67;63.70;97809.00;5030029;28;20179;-66
2024/01/28 03:13:38;;;;;;;12.90;8.20;;;;;;;2.72;63.57;97808.22;5040547;28;20202;-67
2024/01/28 03:16:04;;;;;;;12.63;8.83;;;;;;;2.56;63.68;97805.47;5039587;28;20266;-66
2024/01/28 03:18:30;;;;;;;11.73;8.13;;;;;;;2.56;64.06;97808.06;5034643;28;20178;-68
2024/01/28 03:20:56;;;;;;;14.50;8.97;;;;;;;2.58;63.60;97811.53;5033857;28;20445;-67
2024/01/28 03:23:21;;;;;;;14.37;9.17;;;;;;;2.49;63.93;97805.38;5028198;28;20289;-67
2024/01/28 03:25:47;;;;;;;13.27;8.80;;;;;;;2.75;62.80;97804.78;5041704;28;20228;-68
2024/01/28 03:28:13;;;;;;;10.23;7.73;;;;;;;2.56;63.52;97806.34;5043902;28;20187;-68
2024/01/28 03:30:39;;;;;;;16.03;8.40;;;;;;;2.47;63.79;97816.59;5034623;28;20430;-66
2024/01/28 03:33:04;;;;;;;13.43;7.97;;;;;;;2.59;63.42;97815.84;5039776;28;20187;-67
2024/01/28 03:35:30;;;;;;;14.53;9.57;;;;;;;2.60;63.33;97813.28;5033151;28;20174;-67
2024/01/28 03:37:55;;;;;;;10.77;8.47;;;;;;;2.51;64.04;97808.88;5030861;28;20184;-66
2024/01/28 03:40:20;;;;;;;11.33;7.63;;;;;;;2.39;64.12;97819.13;5035619;28;20179;-68
2024/01/28 03:42:46;;;;;;;14.37;8.77;;;;;;;2.36;64.17;97810.41;5032735;28;20203;-67
2024/01/28 03:45:11;;;;;;;11.43;9.33;;;;;;;2.53;63.70;97809.75;5034952;28;20801;-67
2024/01/28 03:47:37;;;;;;;14.80;7.33;;;;;;;2.57;63.39;97807.19;5038142;28;20176;-67
2024/01/28 03:50:05;;;;;;;12.40;8.93;;;;;;;2.52;63.44;97809.72;5028392;28;20656;-67
2024/01/28 03:52:31;;;;;;;11.67;8.23;;;;;;;2.47;63.65;97801.06;5034554;28;20264;-67
2024/01/28 03:54:56;;;;;;;10.23;7.87;;;;;;;2.37;64.06;97801.81;5028975;28;21300;-67
2024/01/28 03:57:22;;;;;;;10.73;8.30;;;;;;;2.45;64.18;97803.63;5036426;28;20806;-66
2024/01/28 03:59:47;;;;;;;14.37;8.57;;;;;;;2.19;64.53;97805.91;5036626;28;20273;-67
2024/01/28 04:02:14;;;;;;;12.90;9.67;;;;;;;2.57;63.75;97808.06;5041628;28;20202;-65
2024/01/28 04:04:40;;;;;;;14.37;8.70;;;;;;;2.43;63.79;97807.03;5027022;28;20210;-66
2024/01/28 04:07:05;;;;;;;17.03;7.63;;;;;;;2.30;64.13;97808.63;5037601;28;20434;-66
2024/01/28 04:09:32;;;;;;;14.80;9.97;;;;;;;2.28;64.27;97800.84;5034341;28;21018;-67
2024/01/28 04:11:58;;;;;;;18.30;8.73;;;;;;;2.31;64.10;97808.63;5038265;28;20713;-65
2024/01/28 04:14:23;;;;;;;10.93;8.13;;;;;;;2.20;64.39;97799.91;5039067;28;20481;-67
2024/01/28 04:16:49;;;;;;;12.70;9.00;;;;;;;2.12;65.00;97804.97;5038027;28;20236;-67
2024/01/28 04:19:14;;;;;;;21.87;8.00;;;;;;;2.27;64.57;97806.03;5035830;28;20175;-67
2024/01/28 04:21:40;;;;;;;14.50;9.10;;;;;;;2.05;65.02;97807.47;5036884;28;20232;-67
2024/01/28 04:24:06;;;;;;;15.33;8.63;;;;;;;1.95;65.07;97809.09;5031931;28;20237;-67
2024/01/28 04:26:31;;;;;;;13.83;8.60;;;;;;;1.86;65.53;97802.06;5039429;28;20449;-68
2024/01/28 04:28:57;;;;;;;10.97;8.97;;;;;;;1.87;65.34;97798.63;5030395;28;20253;-67
2024/01/28 04:31:26;;;;;;;13.13;9.23;;;;;;;1.83;65.48;97793.41;5032791;28;20179;-68
2024/01/28 04:33:51;;;;;;;9.37;8.17;;;;;;;1.76;65.26;97789.84;5038645;28;20216;-68
2024/01/28 04:36:17;;;;;;;14.33;8.20;;;;;;;1.95;64.93;97797.88;5039828;28;20520;-68
2024/01/28 04:38:42;;;;;;;9.43;8.43;;;;;;;2.05;64.84;97795.38;5038803;28;20180;-67
2024/01/28 04:41:08;;;;;;;8.97;8.07;;;;;;;2.20;64.29;97796.44;5028391;28;20191;-67
2024/01/28 04:43:33;;;;;;;10.60;8.53;;;;;;;2.03;64.56;97798.81;5031865;28;20209;-67
2024/01/28 04:45:58;;;;;;;14.13;9.80;;;;;;;1.96;65.11;97803.06;5035762;28;20175;-67
2024/01/28 04:48:24;;;;;;;9.60;7.77;;;;;;;1.92;64.69;97803.00;5039083;28;20175;-67
2024/01/28 04:50:49;;;;;;;15.30;8.17;;;;;;;1.86;64.90;97802.06;5030641;28;20184;-66
2024/01/28 04:53:15;;;;;;;11.47;9.03;;;;;;;1.76;64.78;97801.94;5034824;28;20677;-66
2024/01/28 04:55:40;;;;;;;12.13;8.23;;;;;;;1.75;64.62;97805.34;5035830;28;21936;-67
2024/01/28 04:58:05;;;;;;;11.50;9.43;;;;;;;1.61;64.83;97810.38;5038853;28;20309;-65
2024/01/28 05:00:31;;;;;;;13.43;7.90;;;;;;;1.27;66.22;97812.44;5035236;28;20495;-69
2024/01/28 05:02:56;;;;;;;10.90;9.60;;;;;;;1.23;66.39;97813.25;5040013;28;20213;-67
2024/01/28 05:05:23;;;;;;;13.63;9.23;;;;;;;1.50;65.91;97814.50;5027333;28;20225;-67
2024/01/28 05:07:49;;;;;;;16.30;8.77;;;;;;;1.28;67.03;97819.38;5034528;28;20187;-67
2024/01/28 05:10:15;;;;;;;15.20;9.97;;;;;;;1.38;66.76;97821.22;5038274;28;20499;-65
2024/01/28 05:12:40;;;;;;;11.03;8.80;;;;;;;1.35;67.03;97817.75;5037608;28;21103;-65
2024/01/28 05:15:06;;;;;;;20.23;9.43;;;;;;;1.53;67.00;97817.13;5039223;28;20186;-67
2024/01/28 05:17:32;;;;;;;14.43;9.17;;;;;;;1.46;67.18;97814.47;5040298;28;20205;-65
2024/01/28 05:19:57;;;;;;;11.43;9.07;;;;;;;1.69;65.90;97819.94;5035653;28;20833;-67
2024/01/28 05:22:23;;;;;;;16.43;10.07;;;;;;;1.25;67.05;97827.06;5040663;28;20221;-67
2024/01/28 05:24:50;;;;;;;10.63;8.40;;;;;;;1.60;66.40;97819.81;5042299;28;20218;-67
2024/01/28 05:27:16;;;;;;;12.80;10.17;;;;;;;1.57;65.72;97812.03;5045647;28;20183;-68
2024/01/28 05:29:42;;;;;;;13.00;9.30;;;;;;;1.76;65.42;97817.47;5035151;28;20531;-67
2024/01/28 05:32:08;;;;;;;15.80;10.53;;;;;;;1.62;66.55;97819.84;5032836;28;20456;-67
2024/01/28 05:34:33;;;;;;;14.87;9.60;;;;;;;1.67;66.25;97826.81;5042081;28;20266;-67
2024/01/28 05:36:59;;;;;;;12.07;9.97;;;;;;;1.77;66.48;97822.66;5043998;28;20528;-66
2024/01/28 05:39:24;;;;;;;12.90;9.70;;;;;;;1.60;66.49;97829.31;5043957;28;20352;-67
2024/01/28 05:41:50;;;;;;;15.43;10.13;;;;;;;1.57;66.84;97822.38;5037787;28;21001;-68
2024/01/28 05:44:15;;;;;;;13.40;9.50;;;;;;;1.88;65.34;97815.03;5033959;28;20207;-67
2024/01/28 05:46:40;;;;;;;14.40;9.70;;;;;;;1.47;66.38;97820.50;5042987;28;20185;-66
2024/01/28 05:49:08;;;;;;;13.53;9.20;;;;;;;1.39;67.68;97824.69;5041834;28;20258;-68
2024/01/28 05:51:38;;;;;;;17.57;10.37;;;;;;;1.12;68.59;97817.38;5034927;28;20175;-65
2024/01/28 05:54:04;;;;;;;13.53;10.10;;;;;;;0.56;70.67;97821.59;5037091;28;20495;-66
2024/01/28 05:56:29;;;;;;;18.50;11.20;;;;;;;0.56;71.40;97823.31;5035195;28;20425;-67
2024/01/28 05:58:55;;;;;;;20.50;11.17;;;;;;;0.47;71.41;97836.03;5033709;28;20178;-66
2024/01/28 06:01:20;;;;;;;18.13;10.10;;;;;;;0.86;70.10;97832.47;5042649;28;20980;-66
2024/01/28 06:03:45;;;;;;;17.50;12.00;;;;;;;1.00;69.60;97834.41;5040282;28;20207;-66
2024/01/28 06:06:11;;;;;;;14.00;10.40;;;;;;;0.95;69.90;97830.91;5030989;28;20745;-66
2024/01/28 06:08:36;;;;;;;20.10;10.67;;;;;;;1.36;68.83;97835.00;5038286;28;20167;-68
2024/01/28 06:11:01;;;;;;;15.30;11.00;;;;;;;1.46;67.94;97826.50;5041451;28;20190;-67
2024/01/28 06:13:27;;;;;;;17.13;10.93;;;;;;;1.58;67.27;97828.41;5038002;28;20273;-67
2024/01/28 06:15:52;;;;;;;14.90;10.00;;;;;;;1.01;70.05;97833.56;5045758;28;21411;-68
2024/01/28 06:18:19;;;;;;;15.60;10.47;;;;;;;1.53;68.17;97830.94;5037054;28;20214;-68
2024/01/28 06:20:45;;;;;;;16.70;10.83;;;;;;;1.47;67.72;97836.91;5032158;28;20276;-67
2024/01/28 06:23:10;;;;;;;16.40;10.30;;;;;;;1.51;68.30;97834.34;5038721;28;20522;-68
2024/01/28 06:25:36;;;;;;;13.67;11.43;;;;;;;1.28;68.75;97837.47;5040469;28;21097;-67
2024/01/28 06:28:02;;;;;;;14.77;10.37;;;;;;;1.44;68.48;97831.69;5029287;28;20175;-68
2024/01/28 06:30:29;;;;;;;14.60;10.53;;;;;;;1.35;68.94;97831.53;5029331;28;20393;-67
2024/01/28 06:32:54;;;;;;;17.97;11.70;;;;;;;1.63;68.30;97826.75;5036658;28;21098;-66
2024/01/28 06:35:20;;;;;;;14.37;10.67;;;;;;;1.47;68.78;97833.44;5037073;28;20543;-66
2024/01/28 06:37:45;;;;;;;16.93;11.13;;;;;;;1.59;68.76;97835.34;5040983;28;20195;-67
2024/01/28 06:40:11;;;;;;;15.03;10.53;;;;;;;1.40;69.05;97827.31;5035863;28;20246;-67
2024/01/28 06:42:36;;;;;;;18.50;11.53;;;;;;;1.47;69.41;97828.28;5037204;28;20719;-67
2024/01/28 06:45:01;;;;;;;18.90;11.67;;;;;;;1.35;69.85;97828.97;5041519;28;20179;-67
2024/01/28 06:47:27;;;;;;;15.30;12.20;;;;;;;1.33;69.00;97830.63;5038700;28;20270;-66
2024/01/28 06:49:52;;;;;;;15.10;10.83;;;;;;;0.98;69.56;97820.59;5030972;28;20191;-67
2024/01/28 06:52:18;;;;;;;19.97;11.50;;;;;;;1.43;69.55;97822.16;5034648;28;20709;-67
2024/01/28 06:54:44;;;;;;;19.53;12.47;;;;;;;1.53;69.44;97822.31;5030473;28;20175;-68
2024/01/28 06:57:09;;;;;;;20.63;12.60;;;;;;;1.62;68.76;97828.47;5034132;28;20187;-68
2024/01/28 06:59:35;;;;;;;14.40;12.43;;;;;;;1.62;69.12;97830.19;5037103;28;20437;-67
2024/01/28 07:02:00;;;;;;;19.47;12.13;;;;;;;1.90;68.14;97840.09;5033674;28;21056;-66
2024/01/28 07:04:26;;;;;;;16.77;12.27;;;;;;;2.20;66.86;97843.06;5036299;28;20782;-67
2024/01/28 07:06:51;;;;;;;15.97;10.40;;;;;;;1.59;68.90;97848.28;5038438;28;20179;-69
2024/01/28 07:09:17;;;;;;;14.53;11.63;;;;;;;1.34;69.71;97850.47;5035035;28;20180;-67
2024/01/28 07:11:43;;;;;;;14.70;12.20;;;;;;;1.45;69.08;97856.69;5039787;28;20313;-67
2024/01/28 07:14:09;;;;;;;18.13;12.10;;;;;;;1.35;69.90;97853.97;5040803;28;20496;-67
2024/01/28 07:16:35;;;;;;;19.03;11.97;;;;;;;1.14;70.52;97855.34;5037729;28;20207;-67
2024/01/28 07:19:00;;;;;;;21.13;12.50;;;;;;;0.45;72.56;97861.84;5038149;28;20294;-67
2024/01/28 07:21:26;;;;;;;19.87;12.47;;;;;;;0.66;74.28;97866.53;5041426;28;20183;-66
2024/01/28 07:23:51;;;;;;;21.97;14.33;;;;;;;0.87;72.54;97863.47;5035479;28;20239;-68
2024/01/28 07:26:17;;;;;;;19.80;12.70;;;;;;;1.15;71.40;97859.66;5040983;28;20186;-66
2024/01/28 07:28:43;;;;;;;20.33;13.80;;;;;;;1.17;70.94;97870.03;5039951;28;20181;-65
2024/01/28 07:31:09;;;;;;;18.90;12.60;;;;;;;0.99;71.93;97868.00;5030338;28;20578;-67
2024/01/28 07:33:34;;;;;;;24.77;13.00;;;;;;;1.11;71.29;97865.63;5031244;28;20264;-67
2024/01/28 07:36:00;;;;;;;19.57;14.10;;;;;;;0.97;72.07;97867.97;5037580;28;20430;-66
2024/01/28 07:38:26;;;;;;;18.90;13.73;;;;;;;0.99;71.94;97857.66;5039151;28;20178;-66
2024/01/28 07:40:51;;;;;;;17.77;12.27;;;;;;;0.87;73.15;97862.59;5039407;28;20277;-67
2024/01/28 07:43:17;;;;;;;17.73;14.00;;;;;;;0.70;73.59;97863.16;5050755;28;20203;-66
2024/01/28 07:45:42;;;;;;;21.43;13.40;;;;;;;0.66;73.11;97866.53;5051047;28;20182;-66
2024/01/28 07:48:08;;;;;;;20.33;14.23;;;;;;;0.56;74.65;97862.91;5049789;28;20356;-66
2024/01/28 07:50:33;;;;;;;22.93;13.37;;;;;;;1.01;73.08;97859.41;5048261;28;20179;-68
2024/01/28 07:52:59;;;;;;;19.83;13.83;;;;;;;1.31;71.71;97860.78;5047815;28;20221;-65
2024/01/28 07:55:24;;;;;;;24.10;13.03;;;;;;;1.68;70.71;97851.00;5047526;28;20209;-66
2024/01/28 07:57:50;;;;;;;18.00;12.90;;;;;;;1.97;69.67;97859.16;5046012;28;20181;-66
2024/01/28 08:00:16;;;;;;;25.13;13.60;;;;;;;1.90;69.51;97849.56;5038007;28;20187;-66
2024/01/28 08:02:41;;;;;;;20.07;14.10;;;;;;;2.07;68.92;97849.78;5027974;28;20990;-67
2024/01/28 08:05:07;;;;;;;24.13;14.67;;;;;;;1.82;70.05;97852.06;5047634;28;20186;-67
2024/01/28 08:07:32;;;;;;;23.77;13.70;;;;;;;2.04;69.09;97849.75;5039549;28;20174;-66
2024/01/28 08:09:58;;;;;;;18.30;13.23;;;;;;;2.13;69.59;97847.28;5046937;28;20195;-67
2024/01/28 08:12:23;;;;;;;20.97;13.17;;;;;;;2.05;68.99;97839.41;5038497;28;20199;-68
2024/01/28 08:14:49;;;;;;;23.23;13.40;;;;;;;1.94;70.74;97848.78;5041438;28;20217;-66
2024/01/28 08:17:14;;;;;;;24.67;14.60;;;;;;;2.36;70.23;97850.13;5054174;28;20186;-67
2024/01/28 08:19:40;;;;;;;22.60;14.63;;;;;;;2.05;70.68;97852.34;5042212;28;20214;-67
2024/01/28 08:22:05;;;;;;;27.03;14.20;;;;;;;1.85;71.87;97853.81;5035178;28;20674;-66
2024/01/28 08:24:31;;;;;;;22.83;13.57;;;;;;;2.04;71.17;97857.53;5029580;28;20203;-66
2024/01/28 08:26:56;;;;;;;29.07;14.90;;;;;;;2.49;69.91;97851.16;5033313;28;20183;-67
2024/01/28 08:29:22;;;;;;;23.60;14.73;;;;;;;2.33;70.12;97850.13;5041613;28;20191;-67
2024/01/28 08:31:48;;;;;;;23.60;14.47;;;;;;;2.44;70.39;97853.72;5035610;28;20229;-67
2024/01/28 08:34:13;;;;;;;23.97;14.20;;;;;;;2.33;70.65;97855.28;5029215;28;20430;-67
2024/01/28 08:36:39;;;;;;;18.70;13.97;;;;;;;2.05;71.20;97849.75;5028024;28;20199;-66
2024/01/28 08:39:05;;;;;;;18.90;15.53;;;;;;;1.89;71.90;97855.59;5039949;28;20211;-67
2024/01/28 08:41:30;;;;;;;21.00;14.20;;;;;;;2.10;71.89;97849.81;5035884;28;20183;-67
2024/01/28 08:43:56;;;;;;;25.20;13.97;;;;;;;2.34;70.76;97846.69;5035848;28;20511;-65
2024/01/28 08:46:21;;;;;;;23.07;14.27;;;;;;;2.32;71.25;97848.38;5034922;28;20270;-67
2024/01/28 08:48:46;;;;;;;21.20;15.27;;;;;;;2.27;71.43;97850.91;5033350;28;20198;-66
2024/01/28 08:51:12;;;;;;;25.63;14.93;;;;;;;2.39;71.03;97839.84;5031587;28;20187;-67
2024/01/28 08:53:37;;;;;;;16.53;13.10;;;;;;;2.37;71.28;97840.66;5036340;28;20884;-69
2024/01/28 08:56:03;;;;;;;18.57;13.53;;;;;;;2.48;70.74;97834.75;5037345;28;20183;-68
2024/01/28 08:58:30;;;;;;;21.70;12.30;;;;;;;2.41;71.11;97838.13;5029913;28;20202;-67
2024/01/28 09:00:56;;;;;;;25.50;14.20;;;;;;;2.36;71.47;97832.00;5041295;28;20476;-69
2024/01/28 09:03:21;;;;;;;18.73;12.50;;;;;;;2.40;71.42;97830.34;5039589;28;20950;-68
2024/01/28 09:05:47;;;;;;;21.60;15.33;;;;;;;2.51;71.49;97828.75;5047576;28;20179;-67
2024/01/28 09:08:13;;;;;;;20.40;13.53;;;;;;;2.77;69.82;97820.38;5032989;28;20543;-65
2024/01/28 09:10:39;;;;;;;19.23;14.60;;;;;;;2.64;70.28;97835.78;5036945;28;20440;-66
2024/01/28 09:13:04;;;;;;;26.30;13.60;;;;;;;2.00;71.97;97842.78;5038252;28;20206;-68
2024/01/28 09:15:29;;;;;;;17.10;12.57;;;;;;;2.27;71.98;97843.16;5028624;28;20183;-68
2024/01/28 09:17:55;;;;;;;18.00;11.40;;;;;;;2.35;71.71;97842.38;5034629;28;20202;-66
2024/01/28 09:20:20;;;;;;;18.47;13.07;;;;;;;2.26;72.06;97840.53;5044846;28;20221;-67
2024/01/28 09:22:46;;;;;;;19.53;13.60;;;;;;;2.31;72.41;97839.72;5037390;28;20937;-69
2024/01/28 09:25:11;;;;;;;19.63;13.40;;;;;;;2.37;72.04;97836.34;5030674;28;20206;-64
2024/01/28 09:27:37;;;;;;;17.40;13.13;;;;;;;2.34;72.15;97841.50;5031940;28;20214;-66
2024/01/28 09:30:02;;;;;;;20.43;13.97;;;;;;;2.61;71.83;97851.31;5035284;28;20187;-67
2024/01/28 09:32:28;;;;;;;20.07;13.60;;;;;;;2.70;70.81;97843.63;5038824;28;20567;-65
2024/01/28 09:34:53;;;;;;;24.30;15.00;;;;;;;2.60;72.41;97840.91;5036393;28;20223;-67
2024/01/28 09:37:19;;;;;;;17.07;11.87;;;;;;;2.70;70.99;97841.03;5045861;28;20539;-69
2024/01/28 09:39:45;;;;;;;22.70;15.00;;;;;;;2.63;71.01;97848.75;5041080;28;20526;-68
2024/01/28 09:42:33;;;;;;;36.90;15.20;;;;;;;2.71;70.52;97847.06;5039986;28;20202;-69
2024/01/28 09:44:58;;;;;;;19.33;13.60;;;;;;;1.94;72.69;97850.47;5034645;28;20438;-68
2024/01/28 09:47:25;;;;;;;20.87;12.80;;;;;;;1.89;74.14;97842.63;5040508;28;20460;-68
2024/01/28 09:49:51;;;;;;;17.73;13.70;;;;;;;2.03;73.71;97850.59;5043357;28;20182;-69
2024/01/28 09:52:17;;;;;;;21.50;14.70;;;;;;;1.74;74.53;97847.63;5043007;28;20468;-65
2024/01/28 09:54:46;;;;;;;22.47;15.07;;;;;;;2.00;73.61;97840.22;5047979;28;20511;-68
2024/01/28 09:57:12;;;;;;;20.63;11.80;;;;;;;1.90;73.88;97844.41;5043255;28;20264;-67
2024/01/28 09:59:38;;;;;;;18.63;12.50;;;;;;;1.37;75.94;97850.53;5035438;28;20438;-67
2024/01/28 10:02:05;;;;;;;16.10;12.67;;;;;;;1.94;74.08;97846.19;5032844;28;20199;-70
2024/01/28 10:04:31;;;;;;;17.10;11.60;;;;;;;2.28;73.30;97846.59;5039836;28;20458;-68
2024/01/28 10:07:01;;;;;;;18.37;12.70;;;;;;;2.12;73.47;97855.91;5035440;28;20418;-66
2024/01/28 10:09:28;;;;;;;18.60;13.37;;;;;;;1.74;75.01;97850.22;5040165;28;20440;-66
2024/01/28 10:11:53;;;;;;;23.83;14.83;;;;;;;0.94;78.12;97854.13;5037576;28;20479;-68
2024/01/28 10:14:19;;;;;;;23.03;14.00;;;;;;;0.97;77.85;97867.09;5036455;28;20434;-66
2024/01/28 10:16:49;;;;;;;21.70;14.23;;;;;;;1.14;77.26;97860.50;5040184;28;20179;-67
2024/01/28 10:19:14;;;;;;;18.57;12.73;;;;;;;1.49;76.59;97857.63;5052518;28;20218;-68
2024/01/28 10:21:42;;;;;;;19.40;13.83;;;;;;;1.67;75.54;97857.00;5047003;28;20439;-69
2024/01/28 10:24:09;;;;;;;22.33;14.37;;;;;;;1.64;74.92;97851.81;5046348;28;20214;-68
2024/01/28 10:26:34;;;;;;;22.13;13.37;;;;;;;1.76;75.28;97846.78;5038334;28;20807;-67
2024/01/28 10:29:00;;;;;;;20.10;15.40;;;;;;;1.52;76.45;97849.03;5042750;28;20437;-69
2024/01/28 10:31:26;;;;;;;25.07;15.03;;;;;;;1.15;76.85;97844.13;5038303;28;20293;-68
2024/01/28 10:33:51;;;;;;;20.20;14.13;;;;;;;1.74;75.52;97838.13;5051381;28;20194;-67
2024/01/28 10:36:17;;;;;;;22.10;14.20;;;;;;;1.45;77.25;97855.81;5044580;28;20674;-67
2024/01/28 10:38:46;;;;;;;20.80;14.53;;;;;;;1.76;75.38;97849.38;5044878;28;20303;-68
2024/01/28 10:41:18;;;;;;;36.23;14.03;;;;;;;1.86;75.01;97840.88;5043034;28;20442;-66
2024/01/28 10:43:57;;;;;;;18.33;13.97;;;;;;;1.42;75.58;97842.84;5041828;28;20523;-67
2024/01/28 10:46:41;;;;;;;22.30;13.57;;;;;;;1.49;75.97;97847.28;5033704;28;20452;-69
2024/01/28 10:49:08;;;;;;;22.67;14.60;;;;;;;1.34;76.58;97853.06;5031809;28;20452;-69
2024/01/28 10:51:37;;;;;;;16.77;12.60;;;;;;;1.54;75.13;97840.44;5038471;28;20417;-69
2024/01/28 10:54:04;;;;;;;18.53;12.40;;;;;;;2.15;73.63;97836.94;5031014;28;20426;-69
2024/01/28 10:56:31;;;;;;;17.77;12.30;;;;;;;2.17;72.37;97843.88;5039241;28;20864;-69
2024/01/28 10:58:57;;;;;;;16.20;12.67;;;;;;;1.66;73.77;97830.28;5031709;28;20765;-69
2024/01/28 11:01:24;;;;;;;16.73;13.17;;;;;;;1.37;74.39;97832.44;5047191;28;20437;-70
2024/01/28 11:03:51;;;;;;;18.43;12.63;;;;;;;1.38;76.13;97829.00;5043478;28;20519;-70
2024/01/28 11:06:17;;;;;;;19.30;13.60;;;;;;;1.41;75.50;97825.56;5046936;28;20466;-69
2024/01/28 11:08:45;;;;;;;16.97;12.67;;;;;;;1.23;76.84;97833.94;5042833;28;20827;-69
2024/01/28 11:11:12;;;;;;;17.73;13.23;;;;;;;1.43;75.58;97824.75;5035627;28;20445;-68
2024/01/28 11:13:38;;;;;;;19.07;12.87;;;;;;;1.05;76.44;97829.34;5038018;28;20453;-67
2024/01/28 11:16:06;;;;;;;15.83;12.53;;;;;;;1.64;75.74;97816.44;5032782;28;20426;-71
2024/01/28 11:18:32;;;;;;;21.33;13.87;;;;;;;1.57;74.17;97816.34;5035440;28;20536;-68
2024/01/28 11:21:18;;;;;;;18.20;12.30;;;;;;;1.82;73.12;97815.84;5034420;28;20561;-71
2024/01/28 11:23:44;;;;;;;17.30;12.93;;;;;;;1.95;73.13;97811.66;5037445;28;20222;-69